AirNav   Bose Proflight Series 2 Wireless Aviation Headset
 
 1806 users online  

00AK Lowell Field Airport
Anchor Point, Alaska, USA

GOING TO ANCHOR POINT?


FAA INFORMATION EFFECTIVE 07 NOVEMBER 2019

Location

FAA Identifier: 00AK
Lat/Long: 59-56-56.0000N 151-41-32.0000W
59-56.933333N 151-41.533333W
59.9488889,-151.6922222
(estimated)
Elevation: 252 ft. / 77 m (estimated)
From city: 12 miles NE of ANCHOR POINT, AK
Time zone: UTC -9 (UTC -8 during Daylight Saving Time)
Zip code: 99639

Airport Operations

Airport use: Private use. Permission required prior to landing
Activation date: 05/2006
Control tower: no
ARTCC: ANCHORAGE CENTER
FSS: HOMER FLIGHT SERVICE STATION [907-235-8588]
Alternate FSS: ENA KENAI FLIGHT SERVICE STATION [1-866-864-1737]
Attendance: UNATNDD
Segmented circle: no

Airport Communications

WX ASOS at HOM (19 nm S): 135.65 (907-235-3603)

Nearby radio navigation aids

VOR radial/distance  VOR name  Freq  Var
HOMr319/16.0HOMER VOR/DME114.6015E

 
NDB name  Hdg/Dist  Freq  Var  ID
KACHEMAK326/19.327717EACE .- -.-. .
SOLDOTNA203/39.834615EOLT --- .-.. -

Airport Services

Runway Information

Runway N/S

Dimensions: 2500 x 40 ft. / 762 x 12 m
Surface: gravel
RUNWAY N  RUNWAY S
Traffic pattern: leftleft

Airport Ownership and Management from official FAA records

Ownership: Privately-owned
Owner: DAN PRESLEY
24436 MISTY LANE
ANCHOR POINT, AK 99556
Phone 907-398-6664
Manager: DAN PRESLEY
24436 MISTY LANE
ANCHOR POINT, AK 99556
Phone 907-567-3986
PRESIDENT HOFFMAN ACRES HOME OWNERS EMAIL: DANPRESLEY@HORIZONSATELLITE.COM

Airport Operational Statistics

Aircraft based on the field: 2
Single engine airplanes: 2
    

Instrument Procedures

There are no published instrument procedures at 00AK.

Some nearby airports with instrument procedures:

PAHO - Homer Airport (19 nm S)
PASX - Soldotna Airport (37 nm NE)
PAEN - Kenai Municipal Airport (40 nm N)
PAWD - Seward Airport (69 nm E)
PANC - Ted Stevens Anchorage International Airport (89 nm NE)
 
Loc | Ops | Rwys | IFR | FBO | Links
Com | Nav | Svcs | Stats | Notes

Crowley
 
Area around 00AK (Lowell Field Airport)
 
Road maps at: MapQuest Bing Google
 
Aerial photo
No photo
 
Sectional chart

 
Airport distance calculator
Flying to Lowell Field Airport? Find the distance to fly.

From to 00AK

Sunrise and sunset
Times for 20-Nov-2019
 Local
(UTC-9)
 Zulu
(UTC)
Morning civil twilight08:2817:28
Sunrise09:1818:18
Sunset16:2701:27
Evening civil twilight17:1702:17

Current date and time
Zulu (UTC)  20-Nov-2019 19:40:31
Local (UTC-9)  20-Nov-2019 10:40:31
 
METAR
PAHO 
20nm S 
201853Z 11008KT 10SM -RA OVC035 08/03 A2917 RMK AO2 PK WND 14028/1800 RAB46 SLP876 P0000 T00780033
PASO 
30nm S 
201853Z AUTO 19007G17KT 6SM -RA BR FEW017 SCT029 OVC035 07/07 A2913 RMK AO2 PK WND 18027/1827 SLP864 P0003 T00720067 TSNO
PASX 
38nm NE 
201856Z AUTO 11008KT 10SM SCT120 06/01 A2915 RMK AO2 SLP880 T00560011
PAEN 
39nm N 
201853Z 10007KT 10SM FEW090 FEW120 04/01 A2913 RMK AO2 SLP867 T00390006
TAF
PAHO 
20nm S 
201749Z 2018/2118 15011G19KT P6SM VCSH SCT035 OVC050 FM202100 18011G19KT P6SM -SHRA OVC050 FM210500 VRB06KT P6SM VCSH OVC050 FM211500 12010KT 6SM -RA BR OVC025
NOTAMs
Click for the latest NOTAMs
NOTAMs are issued by the DoD/FAA and will open in a separate window not controlled by AirNav.

 

 
 

Would you like to see your business listed on this page?

 If your business provides an interesting product or service to pilots, flight crews, aircraft, or users of the Lowell Field Airport, you should consider listing it here.  To start the listing process, click on the button below
 
Add a business
 

Other Pages about Lowell Field Airport

Update a link
 
Copyright © AirNav, LLC. All rights reserved. Privacy Policy  Contact